sensor_id;sensor_type;location;lat;lon;timestamp;temperature;humidity
28069;DHT22;15382;47.578;8.086;2023-03-15T00:09:53;4.30;99.90
28069;DHT22;15382;47.578;8.086;2023-03-15T00:19:54;4.20;99.90
28069;DHT22;15382;47.578;8.086;2023-03-15T00:29:54;4.20;99.90
28069;DHT22;15382;47.578;8.086;2023-03-15T00:39:55;4.20;99.90
28069;DHT22;15382;47.578;8.086;2023-03-15T00:49:56;4.10;99.90
28069;DHT22;15382;47.578;8.086;2023-03-15T00:59:57;4.00;99.90
28069;DHT22;15382;47.578;8.086;2023-03-15T01:09:59;4.00;99.90
28069;DHT22;15382;47.578;8.086;2023-03-15T01:20:01;3.90;99.90
28069;DHT22;15382;47.578;8.086;2023-03-15T01:30:05;3.80;99.90
28069;DHT22;15382;47.578;8.086;2023-03-15T01:40:10;3.60;99.90
28069;DHT22;15382;47.578;8.086;2023-03-15T01:50:11;3.30;99.90
28069;DHT22;15382;47.578;8.086;2023-03-15T02:00:15;2.90;99.90
28069;DHT22;15382;47.578;8.086;2023-03-15T02:10:41;2.60;99.90
28069;DHT22;15382;47.578;8.086;2023-03-15T02:20:52;2.40;99.90
28069;DHT22;15382;47.578;8.086;2023-03-15T02:30:59;1.90;99.90
28069;DHT22;15382;47.578;8.086;2023-03-15T02:41:04;1.50;99.90
28069;DHT22;15382;47.578;8.086;2023-03-15T02:51:05;1.20;99.90
28069;DHT22;15382;47.578;8.086;2023-03-15T03:01:06;1.10;99.90
28069;DHT22;15382;47.578;8.086;2023-03-15T03:11:08;1.10;99.90
28069;DHT22;15382;47.578;8.086;2023-03-15T03:21:10;1.10;99.90
28069;DHT22;15382;47.578;8.086;2023-03-15T03:31:22;1.00;99.90
28069;DHT22;15382;47.578;8.086;2023-03-15T03:41:25;0.90;99.90
28069;DHT22;15382;47.578;8.086;2023-03-15T03:51:27;0.50;99.90
28069;DHT22;15382;47.578;8.086;2023-03-15T04:01:28;0.60;99.90
28069;DHT22;15382;47.578;8.086;2023-03-15T04:11:29;0.40;99.90
28069;DHT22;15382;47.578;8.086;2023-03-15T04:21:34;0.50;99.90
28069;DHT22;15382;47.578;8.086;2023-03-15T04:31:50;0.70;99.90
28069;DHT22;15382;47.578;8.086;2023-03-15T04:41:56;0.50;99.90
28069;DHT22;15382;47.578;8.086;2023-03-15T04:52:06;0.80;99.90
28069;DHT22;15382;47.578;8.086;2023-03-15T05:02:33;0.90;99.90
28069;DHT22;15382;47.578;8.086;2023-03-15T05:12:52;1.10;99.90
28069;DHT22;15382;47.578;8.086;2023-03-15T05:23:01;1.00;99.90
28069;DHT22;15382;47.578;8.086;2023-03-15T05:33:22;1.20;99.90
28069;DHT22;15382;47.578;8.086;2023-03-15T05:43:44;1.10;99.90
28069;DHT22;15382;47.578;8.086;2023-03-15T05:54:05;1.30;99.90
28069;DHT22;15382;47.578;8.086;2023-03-15T06:04:26;1.50;99.90
28069;DHT22;15382;47.578;8.086;2023-03-15T06:14:30;1.30;99.90
28069;DHT22;15382;47.578;8.086;2023-03-15T06:24:35;1.90;99.90
28069;DHT22;15382;47.578;8.086;2023-03-15T06:34:36;1.70;99.90
28069;DHT22;15382;47.578;8.086;2023-03-15T06:44:37;2.30;99.90
28069;DHT22;15382;47.578;8.086;2023-03-15T06:54:41;2.30;99.90
28069;DHT22;15382;47.578;8.086;2023-03-15T07:04:42;3.50;99.90
28069;DHT22;15382;47.578;8.086;2023-03-15T07:14:46;5.00;99.90
28069;DHT22;15382;47.578;8.086;2023-03-15T07:24:47;6.00;99.90
28069;DHT22;15382;47.578;8.086;2023-03-15T07:34:47;6.30;99.90
28069;DHT22;15382;47.578;8.086;2023-03-15T07:44:48;6.50;99.90
28069;DHT22;15382;47.578;8.086;2023-03-15T07:54:49;7.70;99.90
28069;DHT22;15382;47.578;8.086;2023-03-15T08:04:50;7.10;99.90
28069;DHT22;15382;47.578;8.086;2023-03-15T08:14:51;9.10;99.90
28069;DHT22;15382;47.578;8.086;2023-03-15T08:24:52;9.00;99.90
28069;DHT22;15382;47.578;8.086;2023-03-15T08:34:53;8.00;99.90
28069;DHT22;15382;47.578;8.086;2023-03-15T08:44:54;8.30;99.90
28069;DHT22;15382;47.578;8.086;2023-03-15T08:54:59;7.60;99.90
28069;DHT22;15382;47.578;8.086;2023-03-15T09:04:59;7.60;99.90
28069;DHT22;15382;47.578;8.086;2023-03-15T09:15:00;8.20;99.90
28069;DHT22;15382;47.578;8.086;2023-03-15T09:25:01;8.90;99.90
28069;DHT22;15382;47.578;8.086;2023-03-15T09:35:07;8.90;99.90
28069;DHT22;15382;47.578;8.086;2023-03-15T10:05:22;8.60;99.90
28069;DHT22;15382;47.578;8.086;2023-03-15T10:25:53;9.00;99.90
28069;DHT22;15382;47.578;8.086;2023-03-15T10:35:54;9.20;99.90
28069;DHT22;15382;47.578;8.086;2023-03-15T10:46:04;10.00;99.90
28069;DHT22;15382;47.578;8.086;2023-03-15T10:56:21;9.50;99.90
28069;DHT22;15382;47.578;8.086;2023-03-15T11:06:25;9.50;99.90
28069;DHT22;15382;47.578;8.086;2023-03-15T11:16:33;11.80;99.90
28069;DHT22;15382;47.578;8.086;2023-03-15T11:26:37;12.70;99.90
28069;DHT22;15382;47.578;8.086;2023-03-15T11:36:46;11.60;99.90
28069;DHT22;15382;47.578;8.086;2023-03-15T11:56:55;11.70;99.90
28069;DHT22;15382;47.578;8.086;2023-03-15T12:07:34;10.30;99.80
28069;DHT22;15382;47.578;8.086;2023-03-15T12:27:28;12.30;99.40
28069;DHT22;15382;47.578;8.086;2023-03-15T12:37:43;11.70;99.90
28069;DHT22;15382;47.578;8.086;2023-03-15T12:48:30;12.30;97.70
28069;DHT22;15382;47.578;8.086;2023-03-15T12:58:12;11.50;98.90
28069;DHT22;15382;47.578;8.086;2023-03-15T13:08:24;12.30;99.10
28069;DHT22;15382;47.578;8.086;2023-03-15T13:18:33;11.90;96.40
28069;DHT22;15382;47.578;8.086;2023-03-15T13:29:00;12.60;98.00
28069;DHT22;15382;47.578;8.086;2023-03-15T13:39:19;12.20;97.70
28069;DHT22;15382;47.578;8.086;2023-03-15T13:49:23;12.80;97.90
28069;DHT22;15382;47.578;8.086;2023-03-15T14:10:35;11.20;97.20
28069;DHT22;15382;47.578;8.086;2023-03-15T14:20:41;10.20;97.40
28069;DHT22;15382;47.578;8.086;2023-03-15T14:30:52;11.10;98.30
28069;DHT22;15382;47.578;8.086;2023-03-15T14:40:53;11.20;97.40
28069;DHT22;15382;47.578;8.086;2023-03-15T14:51:20;12.10;96.50
28069;DHT22;15382;47.578;8.086;2023-03-15T15:01:26;11.40;96.20
28069;DHT22;15382;47.578;8.086;2023-03-15T15:11:27;10.90;96.30
28069;DHT22;15382;47.578;8.086;2023-03-15T15:21:31;10.50;96.60
28069;DHT22;15382;47.578;8.086;2023-03-15T15:31:32;11.90;95.90
28069;DHT22;15382;47.578;8.086;2023-03-15T15:41:33;11.20;95.80
28069;DHT22;15382;47.578;8.086;2023-03-15T15:51:37;10.80;96.10
28069;DHT22;15382;47.578;8.086;2023-03-15T16:01:41;10.70;95.20
28069;DHT22;15382;47.578;8.086;2023-03-15T16:11:42;11.00;95.00
28069;DHT22;15382;47.578;8.086;2023-03-15T16:21:46;9.80;95.20
28069;DHT22;15382;47.578;8.086;2023-03-15T16:31:48;9.50;95.50
28069;DHT22;15382;47.578;8.086;2023-03-15T16:41:50;9.30;95.80
28069;DHT22;15382;47.578;8.086;2023-03-15T16:51:52;8.90;95.70
28069;DHT22;15382;47.578;8.086;2023-03-15T17:01:53;8.60;96.30
28069;DHT22;15382;47.578;8.086;2023-03-15T17:11:54;8.40;97.00
28069;DHT22;15382;47.578;8.086;2023-03-15T17:21:55;8.40;98.10
28069;DHT22;15382;47.578;8.086;2023-03-15T17:31:56;8.10;99.20
28069;DHT22;15382;47.578;8.086;2023-03-15T17:41:57;7.50;99.90
28069;DHT22;15382;47.578;8.086;2023-03-15T17:51:58;7.00;99.90
28069;DHT22;15382;47.578;8.086;2023-03-15T18:01:59;6.50;99.90
28069;DHT22;15382;47.578;8.086;2023-03-15T18:11:59;6.60;99.90
28069;DHT22;15382;47.578;8.086;2023-03-15T18:22:01;7.70;99.90
28069;DHT22;15382;47.578;8.086;2023-03-15T18:32:02;8.10;99.90
28069;DHT22;15382;47.578;8.086;2023-03-15T18:42:04;8.00;99.90
28069;DHT22;15382;47.578;8.086;2023-03-15T18:52:04;7.00;99.90
28069;DHT22;15382;47.578;8.086;2023-03-15T19:02:07;7.20;99.90
28069;DHT22;15382;47.578;8.086;2023-03-15T19:12:08;5.70;99.90
28069;DHT22;15382;47.578;8.086;2023-03-15T19:22:09;5.20;99.90
28069;DHT22;15382;47.578;8.086;2023-03-15T19:32:09;6.20;99.90
28069;DHT22;15382;47.578;8.086;2023-03-15T19:42:10;5.20;99.90
28069;DHT22;15382;47.578;8.086;2023-03-15T19:52:11;6.20;99.90
28069;DHT22;15382;47.578;8.086;2023-03-15T20:02:15;6.20;99.90
28069;DHT22;15382;47.578;8.086;2023-03-15T20:12:16;6.70;99.90
28069;DHT22;15382;47.578;8.086;2023-03-15T20:22:16;5.90;99.90
28069;DHT22;15382;47.578;8.086;2023-03-15T20:32:17;3.60;99.90
28069;DHT22;15382;47.578;8.086;2023-03-15T20:42:22;2.10;99.90
28069;DHT22;15382;47.578;8.086;2023-03-15T20:52:23;2.20;99.90
28069;DHT22;15382;47.578;8.086;2023-03-15T21:02:24;2.10;99.90
28069;DHT22;15382;47.578;8.086;2023-03-15T21:12:25;2.30;99.90
28069;DHT22;15382;47.578;8.086;2023-03-15T21:22:26;1.90;99.90
28069;DHT22;15382;47.578;8.086;2023-03-15T21:32:27;2.10;99.90
28069;DHT22;15382;47.578;8.086;2023-03-15T21:42:28;2.40;99.90
28069;DHT22;15382;47.578;8.086;2023-03-15T21:52:29;2.40;99.90
28069;DHT22;15382;47.578;8.086;2023-03-15T22:02:29;2.30;99.90
28069;DHT22;15382;47.578;8.086;2023-03-15T22:12:30;2.10;99.90
28069;DHT22;15382;47.578;8.086;2023-03-15T22:22:31;2.00;99.90
28069;DHT22;15382;47.578;8.086;2023-03-15T22:32:32;1.60;99.90
28069;DHT22;15382;47.578;8.086;2023-03-15T22:42:32;1.60;99.90
28069;DHT22;15382;47.578;8.086;2023-03-15T22:52:33;1.40;99.90
28069;DHT22;15382;47.578;8.086;2023-03-15T23:02:34;1.50;99.90
28069;DHT22;15382;47.578;8.086;2023-03-15T23:12:35;1.50;99.90
28069;DHT22;15382;47.578;8.086;2023-03-15T23:22:36;1.60;99.90
28069;DHT22;15382;47.578;8.086;2023-03-15T23:32:37;1.90;99.90
28069;DHT22;15382;47.578;8.086;2023-03-15T23:42:38;1.80;99.90
28069;DHT22;15382;47.578;8.086;2023-03-15T23:52:39;1.80;99.90
